Time;durP1;ratioP1;P1;durP2;ratioP2;P2;SDS_P1;SDS_P2;PMS_P1;PMS_P2;Temp;Humidity;BMP_temperature;BMP_pressure;BME280_temperature;BME280_humidity;BME280_pressure;Samples;Min_cycle;Max_cycle;Signal;HPM_P1;HPM_P2
2020/02/05 00:01:12;;;;;;;5.2;3.5;;;;;;;2.33;99.45215;963.2001;;;;
2020/02/05 00:03:37;;;;;;;5.5;3.8;;;;;;;2.21;99.23242;963.295;;;;
2020/02/05 00:06:02;;;;;;;6.1;3.8;;;;;;;2.22;100;963.3423;;;;
2020/02/05 00:08:27;;;;;;;5;3.8;;;;;;;2.25;99.22949;963.3703;;;;
2020/02/05 00:10:52;;;;;;;5.1;3.6;;;;;;;2.24;99.7041;963.3424;;;;
2020/02/05 00:13:17;;;;;;;6.2;4;;;;;;;2.24;99.60254;963.3183;;;;
2020/02/05 00:15:42;;;;;;;4.7;3.6;;;;;;;2.21;98.26172;963.3873;;;;
2020/02/05 00:18:07;;;;;;;4.7;3.4;;;;;;;2.36;99.06445;963.2969;;;;
2020/02/05 00:20:32;;;;;;;6;3.7;;;;;;;2.37;98.0625;963.2534;;;;
2020/02/05 00:22:57;;;;;;;5.6;3.5;;;;;;;2.37;97.01172;963.3025;;;;
2020/02/05 00:25:23;;;;;;;4.9;3.5;;;;;;;2.33;97.34082;963.2509;;;;
2020/02/05 00:27:48;;;;;;;4.7;3.4;;;;;;;2.2;97.70703;963.2076;;;;
2020/02/05 00:30:13;;;;;;;4.6;3.3;;;;;;;2.23;97.29297;963.2227;;;;
2020/02/05 00:35:03;;;;;;;3.9;2.9;;;;;;;2.21;96.91699;963.1603;;;;
2020/02/05 00:37:28;;;;;;;4.2;3;;;;;;;2.19;97.06152;963.2037;;;;
2020/02/05 00:39:53;;;;;;;4.4;3;;;;;;;2.19;94.91699;963.2278;;;;
2020/02/05 00:42:19;;;;;;;3.8;2.7;;;;;;;2.28;95.28711;963.2372;;;;
2020/02/05 00:44:44;;;;;;;4.9;3;;;;;;;2.37;96.62598;963.3296;;;;
2020/02/05 00:47:09;;;;;;;3.5;2.8;;;;;;;2.39;94.94043;963.274;;;;
2020/02/05 00:49:34;;;;;;;4.6;2.9;;;;;;;2.29;96.26172;963.3784;;;;
2020/02/05 00:52:00;;;;;;;4.3;3;;;;;;;2.4;95.74414;963.399;;;;
2020/02/05 00:54:25;;;;;;;4.3;3;;;;;;;2.29;95.65234;963.4781;;;;
2020/02/05 00:56:50;;;;;;;4.7;3.5;;;;;;;2.13;98.09668;963.7133;;;;
2020/02/05 00:59:15;;;;;;;4.4;3.6;;;;;;;1.99;99.86816;963.6593;;;;
2020/02/05 01:01:40;;;;;;;5.9;3.7;;;;;;;1.9;100;963.7377;;;;
2020/02/05 01:04:11;;;;;;;5.5;4.1;;;;;;;1.9;100;963.8056;;;;
2020/02/05 01:06:37;;;;;;;5;4.4;;;;;;;2.01;100;963.8463;;;;
2020/02/05 01:09:02;;;;;;;6.6;4.8;;;;;;;1.93;100;963.8311;;;;
2020/02/05 01:11:27;;;;;;;7;4.9;;;;;;;1.99;100;963.9194;;;;
2020/02/05 01:13:52;;;;;;;5.9;4.6;;;;;;;1.96;100;963.9612;;;;
2020/02/05 01:16:17;;;;;;;5.6;4.2;;;;;;;2.15;100;964.0069;;;;
2020/02/05 01:18:42;;;;;;;5.2;3.8;;;;;;;2.11;99.7627;963.9956;;;;
2020/02/05 01:22:19;;;;;;;6.2;3.8;;;;;;;2.15;99.68066;963.9979;;;;
2020/02/05 01:24:44;;;;;;;6.6;4.2;;;;;;;2.19;99.2168;964.1387;;;;
2020/02/05 01:27:09;;;;;;;5.4;4.2;;;;;;;2.07;98.95117;964.1116;;;;
2020/02/05 01:29:35;;;;;;;6.9;4.5;;;;;;;2.07;100;964.1294;;;;
2020/02/05 01:32:00;;;;;;;5.1;4.3;;;;;;;2.16;99.25586;964.2433;;;;
2020/02/05 01:34:25;;;;;;;6.2;4.7;;;;;;;2.12;100;964.2877;;;;
2020/02/05 01:36:59;;;;;;;7.3;5;;;;;;;2.04;100;964.503;;;;
2020/02/05 01:39:24;;;;;;;7.1;5.9;;;;;;;1.88;100;964.4419;;;;
2020/02/05 01:41:49;;;;;;;9.3;7.3;;;;;;;1.66;100;964.4625;;;;
2020/02/05 01:44:14;;;;;;;8.5;6.2;;;;;;;1.76;100;964.4545;;;;
2020/02/05 01:46:40;;;;;;;8.4;6.2;;;;;;;1.82;100;964.3596;;;;
2020/02/05 01:49:05;;;;;;;9.7;5.5;;;;;;;1.93;99.07715;964.4037;;;;
2020/02/05 01:51:30;;;;;;;7.8;5.1;;;;;;;1.86;97.33496;964.394;;;;
2020/02/05 01:53:55;;;;;;;9.3;5.6;;;;;;;1.94;96.5957;964.4034;;;;
2020/02/05 01:56:20;;;;;;;7.7;5.7;;;;;;;1.9;98.21387;964.4705;;;;
2020/02/05 01:58:45;;;;;;;7.1;5.7;;;;;;;1.87;98.31836;964.4742;;;;
2020/02/05 02:01:18;;;;;;;8.7;5.6;;;;;;;1.9;99.72559;964.4327;;;;
2020/02/05 02:03:35;;;;;;;9.7;6.9;;;;;;;1.91;100;964.4987;;;;
2020/02/05 02:06:00;;;;;;;7.8;6.4;;;;;;;1.82;100;964.472;;;;
2020/02/05 02:08:25;;;;;;;8.4;6.5;;;;;;;1.79;100;964.5045;;;;
2020/02/05 02:10:51;;;;;;;8.2;6.7;;;;;;;1.8;100;964.4459;;;;
2020/02/05 02:13:16;;;;;;;8.7;6.5;;;;;;;1.78;100;964.4574;;;;
2020/02/05 02:15:41;;;;;;;8.6;7;;;;;;;1.87;100;964.5054;;;;
2020/02/05 02:18:06;;;;;;;9.1;6.9;;;;;;;1.82;100;964.6053;;;;
2020/02/05 02:22:05;;;;;;;9;6.3;;;;;;;1.88;100;964.6448;;;;
2020/02/05 02:22:56;;;;;;;8.5;6.1;;;;;;;1.63;99.94141;964.5233;;;;
2020/02/05 02:25:21;;;;;;;6.5;4.9;;;;;;;1.73;98.87109;964.574;;;;
2020/02/05 02:27:46;;;;;;;6.5;4.4;;;;;;;1.77;98.4082;964.7278;;;;
2020/02/05 02:30:11;;;;;;;8;5;;;;;;;1.77;99.51074;964.6858;;;;
2020/02/05 02:32:37;;;;;;;8.6;5.6;;;;;;;1.81;100;964.6852;;;;
2020/02/05 02:35:02;;;;;;;8.6;5.6;;;;;;;1.87;100;964.6877;;;;
2020/02/05 02:37:27;;;;;;;7.2;5.9;;;;;;;1.9;100;964.7341;;;;
2020/02/05 02:39:52;;;;;;;8.6;6.2;;;;;;;1.92;100;964.8367;;;;
2020/02/05 02:42:17;;;;;;;8.2;6.7;;;;;;;1.86;100;964.8127;;;;
2020/02/05 02:45:03;;;;;;;9.7;6.3;;;;;;;1.87;100;964.7551;;;;
2020/02/05 02:47:29;;;;;;;8.3;6.2;;;;;;;1.95;100;964.7418;;;;
2020/02/05 02:49:54;;;;;;;8.3;6.6;;;;;;;1.89;100;964.8031;;;;
2020/02/05 02:52:19;;;;;;;8.1;6.3;;;;;;;1.95;99.58887;964.8029;;;;
2020/02/05 02:54:44;;;;;;;7.9;6;;;;;;;1.87;100;964.7825;;;;
2020/02/05 02:57:09;;;;;;;7.6;6.1;;;;;;;1.97;99.99902;964.8633;;;;
2020/02/05 02:59:35;;;;;;;8.9;6;;;;;;;2.05;98.31445;964.9471;;;;
2020/02/05 03:02:00;;;;;;;6.9;5.4;;;;;;;2.1;97.63672;964.9426;;;;
2020/02/05 03:05:22;;;;;;;7.4;5.2;;;;;;;2.07;95.55469;964.9642;;;;
2020/02/05 03:07:47;;;;;;;7.8;4.9;;;;;;;2.03;95.52637;964.9647;;;;
2020/02/05 03:10:12;;;;;;;7;4.3;;;;;;;2.04;94.38672;965.0162;;;;
2020/02/05 03:12:37;;;;;;;9.4;4.8;;;;;;;2.08;94.14844;964.9914;;;;
2020/02/05 03:15:02;;;;;;;6.9;4.4;;;;;;;2.13;93.5127;965.0313;;;;
2020/02/05 03:17:29;;;;;;;7.1;4;;;;;;;2.12;94.87793;965.1278;;;;
2020/02/05 03:19:53;;;;;;;6.5;4;;;;;;;2.19;92.69336;965.096;;;;
2020/02/05 03:22:18;;;;;;;5.9;3.9;;;;;;;2.19;93.16797;965.1654;;;;
2020/02/05 03:24:50;;;;;;;5.5;3.6;;;;;;;2.27;92.39551;965.1763;;;;
2020/02/05 03:27:08;;;;;;;6.7;3.8;;;;;;;2.22;93.50098;965.3474;;;;
2020/02/05 03:29:33;;;;;;;6.4;3.2;;;;;;;2.14;92.97754;965.3416;;;;
2020/02/05 03:31:58;;;;;;;5.7;2.9;;;;;;;2.2;92.56055;965.3949;;;;
2020/02/05 03:34:23;;;;;;;6;3.3;;;;;;;2.15;92.55957;965.4182;;;;
2020/02/05 03:36:59;;;;;;;6.2;3.3;;;;;;;2.1;93.78027;965.3586;;;;
2020/02/05 03:39:14;;;;;;;6.5;3.3;;;;;;;2.07;94.16699;965.3526;;;;
2020/02/05 03:41:44;;;;;;;6.1;3.1;;;;;;;2.11;94.29199;965.3655;;;;
2020/02/05 03:44:04;;;;;;;7.1;3.3;;;;;;;2.16;94.27734;965.3781;;;;
2020/02/05 03:46:31;;;;;;;4.9;3;;;;;;;2.23;93.35645;965.4634;;;;
2020/02/05 03:48:56;;;;;;;7.5;3.5;;;;;;;2.08;93.45996;965.4849;;;;
2020/02/05 03:51:24;;;;;;;5.8;3;;;;;;;2.1;92.98828;965.54;;;;
2020/02/05 03:53:46;;;;;;;5.9;2.9;;;;;;;2.19;92.5918;965.6331;;;;
2020/02/05 03:56:11;;;;;;;5.1;3.3;;;;;;;2.17;92.99414;965.5332;;;;
2020/02/05 03:58:36;;;;;;;7.1;3.4;;;;;;;2.22;92.79004;965.668;;;;
2020/02/05 04:02:28;;;;;;;7;3.3;;;;;;;2.16;92.50684;965.7787;;;;
2020/02/05 04:04:53;;;;;;;6.4;3.3;;;;;;;2.18;92.78027;965.8599;;;;
2020/02/05 04:07:18;;;;;;;6.5;3.2;;;;;;;2.24;92.4209;965.8481;;;;
2020/02/05 04:09:46;;;;;;;6.2;3.3;;;;;;;2.16;91.96387;965.8958;;;;
2020/02/05 04:12:10;;;;;;;5.7;3.2;;;;;;;2.15;92.05176;966.021;;;;
2020/02/05 04:14:35;;;;;;;4.7;3;;;;;;;2.19;92.54688;965.9844;;;;
2020/02/05 04:17:00;;;;;;;5.8;3;;;;;;;2.22;93.06055;965.9925;;;;
2020/02/05 04:19:25;;;;;;;5.7;3;;;;;;;2.25;92.80664;966.075;;;;
2020/02/05 04:21:50;;;;;;;7.6;3.3;;;;;;;2.16;93.92871;966.163;;;;
2020/02/05 04:24:21;;;;;;;7.2;3.2;;;;;;;2.19;92.43359;966.2167;;;;
2020/02/05 04:26:40;;;;;;;5.7;3.3;;;;;;;2.09;92.93164;966.3117;;;;
2020/02/05 04:29:05;;;;;;;6.6;3.3;;;;;;;2.16;93.02637;966.3501;;;;
2020/02/05 04:33:59;;;;;;;5.6;3.2;;;;;;;2.18;92.25098;966.3334;;;;
2020/02/05 04:36:31;;;;;;;6.9;3.7;;;;;;;2.1;91.22754;966.2601;;;;
2020/02/05 04:38:46;;;;;;;6.9;3.2;;;;;;;2.16;91.16406;966.3575;;;;
2020/02/05 04:41:11;;;;;;;6.1;2.9;;;;;;;2.16;89.52734;966.3308;;;;
2020/02/05 04:43:36;;;;;;;5.8;3.1;;;;;;;2.08;90.57129;966.4135;;;;
2020/02/05 04:46:29;;;;;;;5.9;3.3;;;;;;;2.06;91.41211;966.4631;;;;
2020/02/05 04:48:54;;;;;;;7.6;3.5;;;;;;;2.08;90.72949;966.5934;;;;
2020/02/05 04:51:20;;;;;;;7.5;3.4;;;;;;;2.08;91.10156;966.6465;;;;
2020/02/05 04:53:45;;;;;;;6.3;3.3;;;;;;;2.07;90.58984;966.7897;;;;
2020/02/05 04:56:10;;;;;;;6.6;3;;;;;;;2.16;89.42578;966.8125;;;;
2020/02/05 04:58:35;;;;;;;6.1;3.1;;;;;;;2.17;89.24707;966.8278;;;;
2020/02/05 05:01:18;;;;;;;6.4;3.1;;;;;;;2.14;90.27832;966.9684;;;;
2020/02/05 05:03:27;;;;;;;7.8;3.4;;;;;;;2.09;90.6748;967.1067;;;;
2020/02/05 05:05:50;;;;;;;6.4;3.3;;;;;;;2.04;91.50977;967.0295;;;;
2020/02/05 05:08:34;;;;;;;7.4;3.3;;;;;;;2.06;93.03809;967.1049;;;;
2020/02/05 05:10:42;;;;;;;7.2;3.2;;;;;;;2.07;92.7793;967.215;;;;
2020/02/05 05:13:07;;;;;;;8;3.5;;;;;;;1.93;94.62207;967.2469;;;;
2020/02/05 05:15:37;;;;;;;5.3;3.4;;;;;;;1.97;93.07129;967.2015;;;;
2020/02/05 05:18:21;;;;;;;7.6;3.4;;;;;;;1.98;92.11621;967.2073;;;;
2020/02/05 05:20:22;;;;;;;8.6;3.6;;;;;;;1.92;92.60059;967.2762;;;;
2020/02/05 05:22:47;;;;;;;7;3.2;;;;;;;1.9;92.13477;967.2305;;;;
2020/02/05 05:25:12;;;;;;;6.8;3.3;;;;;;;1.94;92.08594;967.1683;;;;
2020/02/05 05:27:37;;;;;;;6.1;3;;;;;;;2.01;89.89063;967.257;;;;
2020/02/05 05:30:03;;;;;;;7.6;3.3;;;;;;;1.98;90.54883;967.234;;;;
2020/02/05 05:32:27;;;;;;;6.2;3.1;;;;;;;1.9;90.45215;967.3195;;;;
2020/02/05 05:34:53;;;;;;;7.2;3.2;;;;;;;1.87;90.00684;967.3466;;;;
2020/02/05 05:37:18;;;;;;;6.3;2.9;;;;;;;1.91;90.66992;967.3597;;;;
2020/02/05 05:39:43;;;;;;;8;3.3;;;;;;;1.96;90.2627;967.3666;;;;
2020/02/05 05:42:08;;;;;;;7.6;3.2;;;;;;;1.87;91.25879;967.4478;;;;
2020/02/05 05:44:33;;;;;;;6.5;3.1;;;;;;;1.95;89.96777;967.4169;;;;
2020/02/05 05:46:58;;;;;;;7.1;2.9;;;;;;;1.95;89.56152;967.4396;;;;
2020/02/05 05:49:23;;;;;;;7.7;3.1;;;;;;;1.95;89.88867;967.475;;;;
2020/02/05 05:51:48;;;;;;;9.2;3.2;;;;;;;2;90.2041;967.5873;;;;
2020/02/05 05:54:33;;;;;;;5.8;3.1;;;;;;;1.93;90.01953;967.6083;;;;
2020/02/05 05:58:25;;;;;;;7.7;3.1;;;;;;;1.95;90.39648;967.6331;;;;
2020/02/05 06:00:50;;;;;;;8.5;3.1;;;;;;;1.9;90.2627;967.7908;;;;
2020/02/05 06:03:15;;;;;;;7.6;2.9;;;;;;;1.87;90.0293;967.7637;;;;
2020/02/05 06:05:40;;;;;;;10.4;3.3;;;;;;;1.88;90.40332;967.8019;;;;
2020/02/05 06:08:06;;;;;;;9.5;3.2;;;;;;;1.87;90.62695;967.8656;;;;
2020/02/05 06:10:31;;;;;;;5.6;2.8;;;;;;;1.86;90.36523;967.9766;;;;
2020/02/05 06:12:56;;;;;;;8.5;3.3;;;;;;;1.97;89.40723;967.9981;;;;
2020/02/05 06:15:21;;;;;;;7.3;3.2;;;;;;;1.96;89.23633;968.0706;;;;
2020/02/05 06:17:46;;;;;;;7.1;3;;;;;;;1.99;88.49707;968.1224;;;;
2020/02/05 06:20:12;;;;;;;9.1;3.6;;;;;;;1.9;89.12109;968.1527;;;;
2020/02/05 06:22:37;;;;;;;8.9;3.3;;;;;;;1.85;89.51758;968.2234;;;;
2020/02/05 06:25:02;;;;;;;8.2;2.9;;;;;;;1.91;88.73047;968.2796;;;;
2020/02/05 06:27:27;;;;;;;6.9;2.9;;;;;;;1.89;88.91602;968.4231;;;;
2020/02/05 06:29:52;;;;;;;8.1;2.9;;;;;;;1.86;89.26074;968.4487;;;;
2020/02/05 06:32:17;;;;;;;7.7;3.2;;;;;;;1.85;89.39355;968.4694;;;;
2020/02/05 06:34:42;;;;;;;9.6;3.4;;;;;;;1.8;88.7959;968.4709;;;;
2020/02/05 06:37:07;;;;;;;9.6;3.6;;;;;;;1.89;87.33789;968.5735;;;;
2020/02/05 06:39:32;;;;;;;8.9;3.6;;;;;;;1.92;88.73047;968.6581;;;;
2020/02/05 06:41:57;;;;;;;8.1;3.6;;;;;;;1.91;86.56445;968.699;;;;
2020/02/05 06:44:22;;;;;;;8.7;2.9;;;;;;;1.91;86.0459;968.7756;;;;
2020/02/05 06:46:47;;;;;;;6.8;2.9;;;;;;;;;;;;;
2020/02/05 06:49:12;;;;;;;6.4;2.8;;;;;;;;;;;;;
2020/02/05 06:51:38;;;;;;;8.5;2.9;;;;;;;;;;;;;
2020/02/05 06:54:03;;;;;;;9;3.1;;;;;;;;;;;;;
2020/02/05 06:56:28;;;;;;;9.9;3.1;;;;;;;;;;;;;
2020/02/05 06:58:53;;;;;;;7.4;2.6;;;;;;;;;;;;;
2020/02/05 07:01:18;;;;;;;8.9;2.9;;;;;;;;;;;;;
2020/02/05 07:03:43;;;;;;;7.8;2.8;;;;;;;;;;;;;
2020/02/05 07:06:08;;;;;;;8.6;2.7;;;;;;;;;;;;;
2020/02/05 07:08:33;;;;;;;8.5;2.7;;;;;;;;;;;;;
2020/02/05 07:10:58;;;;;;;8.3;2.7;;;;;;;;;;;;;
2020/02/05 07:13:23;;;;;;;9.2;2.7;;;;;;;;;;;;;
2020/02/05 07:15:49;;;;;;;9.3;2.6;;;;;;;;;;;;;
2020/02/05 07:18:13;;;;;;;9.5;2.8;;;;;;;;;;;;;
2020/02/05 07:20:39;;;;;;;9;2.5;;;;;;;;;;;;;
2020/02/05 07:23:04;;;;;;;8.3;2.8;;;;;;;;;;;;;
2020/02/05 07:25:29;;;;;;;9.8;2.9;;;;;;;;;;;;;
2020/02/05 07:27:54;;;;;;;6.9;2.5;;;;;;;;;;;;;
2020/02/05 07:30:19;;;;;;;8;2.6;;;;;;;;;;;;;
2020/02/05 07:32:44;;;;;;;8;2.9;;;;;;;;;;;;;
2020/02/05 07:35:09;;;;;;;9.2;3.2;;;;;;;;;;;;;
2020/02/05 07:37:34;;;;;;;7.1;2.6;;;;;;;;;;;;;
2020/02/05 07:39:59;;;;;;;10.3;2.9;;;;;;;;;;;;;
2020/02/05 07:42:24;;;;;;;7.6;2.4;;;;;;;;;;;;;
2020/02/05 07:44:49;;;;;;;8;2.5;;;;;;;;;;;;;
2020/02/05 07:47:14;;;;;;;7.5;2.4;;;;;;;;;;;;;
2020/02/05 07:49:40;;;;;;;8.7;2.9;;;;;;;;;;;;;
2020/02/05 07:52:05;;;;;;;9.9;2.8;;;;;;;;;;;;;
2020/02/05 07:54:30;;;;;;;9.8;2.7;;;;;;;;;;;;;
2020/02/05 07:56:55;;;;;;;9.2;2.4;;;;;;;;;;;;;
2020/02/05 07:59:20;;;;;;;9.9;2.6;;;;;;;;;;;;;
2020/02/05 08:01:45;;;;;;;7.8;2.1;;;;;;;;;;;;;
2020/02/05 08:04:10;;;;;;;8.2;2.5;;;;;;;;;;;;;
2020/02/05 08:06:35;;;;;;;9.7;2.4;;;;;;;;;;;;;
2020/02/05 08:09:00;;;;;;;10.7;4.9;;;;;;;;;;;;;
2020/02/05 08:11:25;;;;;;;7.2;2.8;;;;;;;;;;;;;
2020/02/05 08:13:50;;;;;;;9.2;2.7;;;;;;;;;;;;;
2020/02/05 08:16:16;;;;;;;8.4;2.3;;;;;;;;;;;;;
2020/02/05 08:18:41;;;;;;;8.2;2.5;;;;;;;;;;;;;
2020/02/05 08:21:06;;;;;;;10.3;3.3;;;;;;;;;;;;;
2020/02/05 08:23:31;;;;;;;7.8;3.2;;;;;;;;;;;;;
2020/02/05 08:25:56;;;;;;;9.4;2.7;;;;;;;;;;;;;
2020/02/05 08:28:21;;;;;;;9.4;2.6;;;;;;;;;;;;;
2020/02/05 08:30:46;;;;;;;9.3;2.4;;;;;;;;;;;;;
2020/02/05 08:33:11;;;;;;;8.8;2.8;;;;;;;;;;;;;
2020/02/05 08:35:36;;;;;;;9.5;3.4;;;;;;;;;;;;;
2020/02/05 08:38:01;;;;;;;9;2.5;;;;;;;;;;;;;
2020/02/05 08:40:27;;;;;;;7.7;2.2;;;;;;;;;;;;;
2020/02/05 08:42:52;;;;;;;9.3;2.5;;;;;;;;;;;;;
2020/02/05 08:45:17;;;;;;;8.8;2.4;;;;;;;;;;;;;
2020/02/05 08:47:42;;;;;;;8.6;2.3;;;;;;;;;;;;;
2020/02/05 08:50:07;;;;;;;8.9;2.6;;;;;;;;;;;;;
2020/02/05 08:52:32;;;;;;;7.6;2.3;;;;;;;;;;;;;
2020/02/05 08:54:57;;;;;;;7.6;2.2;;;;;;;;;;;;;
2020/02/05 08:57:22;;;;;;;10.7;2.4;;;;;;;;;;;;;
2020/02/05 08:59:47;;;;;;;9.2;2.4;;;;;;;;;;;;;
2020/02/05 09:02:12;;;;;;;9.4;2.6;;;;;;;;;;;;;
2020/02/05 09:04:38;;;;;;;10.3;2.6;;;;;;;;;;;;;
2020/02/05 09:07:03;;;;;;;7.4;2.1;;;;;;;;;;;;;
2020/02/05 09:09:28;;;;;;;9.2;2.2;;;;;;;;;;;;;
2020/02/05 09:11:53;;;;;;;9;2.4;;;;;;;;;;;;;
2020/02/05 09:14:18;;;;;;;9.5;2.1;;;;;;;;;;;;;
2020/02/05 09:16:43;;;;;;;5.7;1.8;;;;;;;;;;;;;
2020/02/05 09:19:08;;;;;;;4.3;1.5;;;;;;;;;;;;;
2020/02/05 09:21:33;;;;;;;6.4;2.1;;;;;;;;;;;;;
2020/02/05 09:23:58;;;;;;;7.5;2.3;;;;;;;;;;;;;
2020/02/05 09:26:24;;;;;;;4.3;1.8;;;;;;;;;;;;;
2020/02/05 09:28:49;;;;;;;5.2;1.6;;;;;;;;;;;;;
2020/02/05 09:31:14;;;;;;;6.4;1.6;;;;;;;;;;;;;
2020/02/05 09:33:39;;;;;;;5.8;1.5;;;;;;;;;;;;;
2020/02/05 09:36:04;;;;;;;5.2;1.7;;;;;;;;;;;;;
2020/02/05 09:38:29;;;;;;;6;1.8;;;;;;;;;;;;;
2020/02/05 09:40:54;;;;;;;6;1.8;;;;;;;;;;;;;
2020/02/05 09:43:28;;;;;;;4.4;1.3;;;;;;;;;;;;;
2020/02/05 09:45:44;;;;;;;6.4;2.1;;;;;;;;;;;;;
2020/02/05 09:48:11;;;;;;;4.4;1.9;;;;;;;;;;;;;
2020/02/05 09:50:35;;;;;;;4.9;1.7;;;;;;;;;;;;;
2020/02/05 09:55:27;;;;;;;3.9;1.4;;;;;;;;;;;;;
2020/02/05 09:57:50;;;;;;;3.7;1.3;;;;;;;;;;;;;
2020/02/05 10:00:15;;;;;;;4.2;1.6;;;;;;;;;;;;;
2020/02/05 10:02:40;;;;;;;4.1;1.5;;;;;;;;;;;;;
2020/02/05 10:05:05;;;;;;;4.5;1.6;;;;;;;;;;;;;
2020/02/05 10:07:30;;;;;;;5.1;1.8;;;;;;;;;;;;;
2020/02/05 10:09:55;;;;;;;3.2;1.2;;;;;;;;;;;;;
2020/02/05 10:12:20;;;;;;;4.2;1.4;;;;;;;;;;;;;
2020/02/05 10:14:45;;;;;;;4.2;1.4;;;;;;;;;;;;;
2020/02/05 10:17:10;;;;;;;4.4;1.8;;;;;;;;;;;;;
2020/02/05 10:19:35;;;;;;;6.2;2.4;;;;;;;;;;;;;
2020/02/05 10:22:01;;;;;;;3.8;1.3;;;;;;;;;;;;;
2020/02/05 10:24:26;;;;;;;3.3;1.3;;;;;;;;;;;;;
2020/02/05 10:26:51;;;;;;;3.8;1.3;;;;;;;;;;;;;
2020/02/05 10:29:16;;;;;;;4.3;1.8;;;;;;;;;;;;;
2020/02/05 10:31:41;;;;;;;5.5;1.5;;;;;;;;;;;;;
2020/02/05 10:34:06;;;;;;;5.1;2.4;;;;;;;;;;;;;
2020/02/05 10:36:31;;;;;;;6.6;2;;;;;;;;;;;;;
2020/02/05 10:38:56;;;;;;;5.1;1.7;;;;;;;;;;;;;
2020/02/05 10:41:22;;;;;;;3.7;1.3;;;;;;;;;;;;;
2020/02/05 10:43:47;;;;;;;2.9;1.2;;;;;;;;;;;;;
2020/02/05 10:46:34;;;;;;;4.6;1.4;;;;;;;;;;;;;
2020/02/05 10:51:11;;;;;;;3.3;1.4;;;;;;;;;;;;;
2020/02/05 10:53:42;;;;;;;3.9;1.6;;;;;;;;;;;;;
2020/02/05 10:56:01;;;;;;;3.7;1.4;;;;;;;;;;;;;
2020/02/05 10:58:34;;;;;;;4.2;1.3;;;;;;;;;;;;;
2020/02/05 11:00:53;;;;;;;3.4;1;;;;;;;;;;;;;
2020/02/05 11:03:22;;;;;;;3.6;1.2;;;;;;;;;;;;;
2020/02/05 11:05:41;;;;;;;3.3;1.1;;;;;;;;;;;;;
2020/02/05 11:08:07;;;;;;;6.2;1;;;;;;;;;;;;;
2020/02/05 11:10:31;;;;;;;3.8;1.1;;;;;;;;;;;;;
2020/02/05 11:12:54;;;;;;;3;1.2;;;;;;;;;;;;;
2020/02/05 11:17:51;;;;;;;3.6;1.3;;;;;;;;;;;;;
2020/02/05 11:20:52;;;;;;;3.8;1.3;;;;;;;;;;;;;
2020/02/05 11:22:36;;;;;;;3.6;1.4;;;;;;;;;;;;;
2020/02/05 11:25:02;;;;;;;2.8;0.9;;;;;;;;;;;;;
2020/02/05 11:27:27;;;;;;;5;1.3;;;;;;;;;;;;;
2020/02/05 11:31:25;;;;;;;4.1;1.2;;;;;;;;;;;;;
2020/02/05 11:33:50;;;;;;;2.7;1;;;;;;;;;;;;;
2020/02/05 11:36:15;;;;;;;2.3;0.9;;;;;;;;;;;;;
2020/02/05 11:38:40;;;;;;;2.8;1;;;;;;;;;;;;;
2020/02/05 11:41:05;;;;;;;3.5;1.1;;;;;;;;;;;;;
2020/02/05 11:43:30;;;;;;;3.5;1.3;;;;;;;;;;;;;
2020/02/05 11:45:55;;;;;;;2.7;1.2;;;;;;;;;;;;;
2020/02/05 11:48:20;;;;;;;2;0.8;;;;;;;;;;;;;
2020/02/05 11:50:45;;;;;;;2.3;1.1;;;;;;;;;;;;;
2020/02/05 11:53:10;;;;;;;2.4;1;;;;;;;;;;;;;
2020/02/05 11:55:35;;;;;;;1.9;0.8;;;;;;;;;;;;;
2020/02/05 11:58:00;;;;;;;3;1;;;;;;;;;;;;;
2020/02/05 12:00:25;;;;;;;4.2;1.2;;;;;;;;;;;;;
2020/02/05 12:02:50;;;;;;;4.6;2.2;;;;;;;;;;;;;
2020/02/05 12:05:15;;;;;;;3.6;1.2;;;;;;;;;;;;;
2020/02/05 12:07:40;;;;;;;3.7;1.1;;;;;;;;;;;;;
2020/02/05 12:10:05;;;;;;;2.5;0.8;;;;;;;;;;;;;
2020/02/05 12:12:31;;;;;;;2.9;1.1;;;;;;;;;;;;;
2020/02/05 12:14:56;;;;;;;2.5;1.1;;;;;;;;;;;;;
2020/02/05 12:17:21;;;;;;;4;1.1;;;;;;;;;;;;;
2020/02/05 12:19:47;;;;;;;3.9;1.1;;;;;;;;;;;;;
2020/02/05 12:22:11;;;;;;;1.2;0.7;;;;;;;;;;;;;
2020/02/05 12:24:43;;;;;;;3.4;1.1;;;;;;;;;;;;;
2020/02/05 12:29:26;;;;;;;2.8;1.2;;;;;;;;;;;;;
2020/02/05 12:32:06;;;;;;;3.5;1.1;;;;;;;;;;;;;
2020/02/05 12:34:25;;;;;;;3.8;1.1;;;;;;;;;;;;;
2020/02/05 12:36:50;;;;;;;2.2;0.9;;;;;;;;;;;;;
2020/02/05 12:46:42;;;;;;;2.5;1.1;;;;;;;;;;;;;
2020/02/05 12:48:57;;;;;;;3.7;1.4;;;;;;;;;;;;;
2020/02/05 12:51:18;;;;;;;2.2;1;;;;;;;;;;;;;
2020/02/05 12:56:27;;;;;;;3.6;1;;;;;;;;;;;;;
2020/02/05 13:01:04;;;;;;;3.8;1.5;;;;;;;;;;;;;
2020/02/05 13:03:33;;;;;;;3.3;1.2;;;;;;;;;;;;;
2020/02/05 13:05:46;;;;;;;4.3;1.4;;;;;;;;;;;;;
2020/02/05 13:08:12;;;;;;;2.4;1;;;;;;;;;;;;;
2020/02/05 13:10:37;;;;;;;2.3;1.1;;;;;;;;;;;;;
2020/02/05 13:13:02;;;;;;;2.6;1.3;;;;;;;;;;;;;
2020/02/05 13:15:27;;;;;;;2;1;;;;;;;;;;;;;
2020/02/05 13:17:52;;;;;;;2.6;0.8;;;;;;;;;;;;;
2020/02/05 13:20:17;;;;;;;2.8;1.1;;;;;;;;;;;;;
2020/02/05 13:22:42;;;;;;;2.8;1.2;;;;;;;;;;;;;
2020/02/05 13:25:07;;;;;;;1.5;0.7;;;;;;;;;;;;;
2020/02/05 13:27:32;;;;;;;2.6;1;;;;;;;;;;;;;
2020/02/05 13:29:57;;;;;;;2.9;1.1;;;;;;;;;;;;;
2020/02/05 13:32:22;;;;;;;2;0.9;;;;;;;;;;;;;
2020/02/05 13:34:47;;;;;;;3.2;1;;;;;;;;;;;;;
2020/02/05 13:37:13;;;;;;;2.7;1;;;;;;;;;;;;;
2020/02/05 13:39:42;;;;;;;1.9;0.8;;;;;;;;;;;;;
2020/02/05 13:42:11;;;;;;;3;0.9;;;;;;;;;;;;;
2020/02/05 13:44:36;;;;;;;2.1;0.9;;;;;;;;;;;;;
2020/02/05 13:47:01;;;;;;;2.8;1;;;;;;;;;;;;;
2020/02/05 13:49:26;;;;;;;2.9;1.1;;;;;;;;;;;;;
2020/02/05 13:51:52;;;;;;;2.5;0.8;;;;;;;;;;;;;
2020/02/05 13:54:17;;;;;;;2.4;0.9;;;;;;;;;;;;;
2020/02/05 13:56:42;;;;;;;2.8;0.9;;;;;;;;;;;;;
2020/02/05 13:59:07;;;;;;;3.2;1.2;;;;;;;;;;;;;
2020/02/05 14:01:32;;;;;;;3;1;;;;;;;;;;;;;
2020/02/05 14:03:57;;;;;;;2.3;0.9;;;;;;;;;;;;;
2020/02/05 14:06:24;;;;;;;3.1;1.1;;;;;;;;;;;;;
2020/02/05 14:08:47;;;;;;;2.1;0.9;;;;;;;;;;;;;
2020/02/05 14:11:13;;;;;;;4.3;1.3;;;;;;;;;;;;;
2020/02/05 14:13:38;;;;;;;2.9;1;;;;;;;;;;;;;
2020/02/05 14:16:03;;;;;;;3.1;1.3;;;;;;;;;;;;;
2020/02/05 14:18:28;;;;;;;2.5;1.4;;;;;;;;;;;;;
2020/02/05 14:20:53;;;;;;;3.7;1.4;;;;;;;;;;;;;
2020/02/05 14:23:18;;;;;;;3.7;1.2;;;;;;;;;;;;;
2020/02/05 14:25:43;;;;;;;3;1.3;;;;;;;;;;;;;
2020/02/05 14:28:08;;;;;;;2.7;1.2;;;;;;;;;;;;;
2020/02/05 14:30:33;;;;;;;2.2;1;;;;;;;;;;;;;
2020/02/05 14:32:59;;;;;;;2.6;0.9;;;;;;;;;;;;;
2020/02/05 14:35:24;;;;;;;2.6;1;;;;;;;;;;;;;
2020/02/05 14:38:05;;;;;;;2.3;1.1;;;;;;;;;;;;;
2020/02/05 14:40:14;;;;;;;3.2;1.1;;;;;;;;;;;;;
2020/02/05 14:42:42;;;;;;;4.5;0.9;;;;;;;;;;;;;
2020/02/05 14:45:04;;;;;;;2.7;1.1;;;;;;;;;;;;;
2020/02/05 14:47:29;;;;;;;3;1.1;;;;;;;;;;;;;
2020/02/05 14:49:54;;;;;;;2.8;1.1;;;;;;;;;;;;;
2020/02/05 14:52:19;;;;;;;2.2;1;;;;;;;;;;;;;
2020/02/05 14:54:44;;;;;;;2.8;1;;;;;;;;;;;;;
2020/02/05 14:57:10;;;;;;;2.8;1.3;;;;;;;;;;;;;
2020/02/05 14:59:35;;;;;;;2.8;1;;;;;;;;;;;;;
2020/02/05 15:02:00;;;;;;;2.4;1.2;;;;;;;;;;;;;
2020/02/05 15:04:25;;;;;;;3.1;1;;;;;;;;;;;;;
2020/02/05 15:06:50;;;;;;;3.1;1.3;;;;;;;;;;;;;
2020/02/05 15:09:15;;;;;;;2.4;1.1;;;;;;;;;;;;;
2020/02/05 15:11:40;;;;;;;3.9;1.9;;;;;;;;;;;;;
2020/02/05 15:14:05;;;;;;;4.5;1.9;;;;;;;;;;;;;
2020/02/05 15:16:30;;;;;;;3.2;1.4;;;;;;;;;;;;;
2020/02/05 15:18:55;;;;;;;4;1.5;;;;;;;;;;;;;
2020/02/05 15:21:20;;;;;;;3.9;1.2;;;;;;;;;;;;;
2020/02/05 15:23:46;;;;;;;2.9;1;;;;;;;;;;;;;
2020/02/05 15:26:11;;;;;;;2.7;0.9;;;;;;;;;;;;;
2020/02/05 15:28:36;;;;;;;2.1;0.9;;;;;;;;;;;;;
2020/02/05 15:31:01;;;;;;;3.5;1.2;;;;;;;;;;;;;
2020/02/05 15:33:26;;;;;;;2.6;1;;;;;;;;;;;;;
2020/02/05 15:35:51;;;;;;;2.3;0.8;;;;;;;;;;;;;
2020/02/05 15:38:16;;;;;;;2.5;1;;;;;;;;;;;;;
2020/02/05 15:40:42;;;;;;;3.2;1;;;;;;;;;;;;;
2020/02/05 15:44:48;;;;;;;3.5;1.3;;;;;;;;;;;;;
2020/02/05 15:47:13;;;;;;;3.2;1.5;;;;;;;;;;;;;
2020/02/05 15:49:38;;;;;;;4;1.3;;;;;;;;;;;;;
2020/02/05 15:52:03;;;;;;;2.7;1.1;;;;;;;;;;;;;
2020/02/05 15:54:28;;;;;;;3.4;1.4;;;;;;;;;;;;;
2020/02/05 15:56:53;;;;;;;3.7;1.7;;;;;;;;;;;;;
2020/02/05 15:59:19;;;;;;;2.5;1.4;;;;;;;;;;;;;
2020/02/05 16:01:44;;;;;;;4.2;1.6;;;;;;;;;;;;;
2020/02/05 16:04:09;;;;;;;3.6;1.6;;;;;;;;;;;;;
2020/02/05 16:06:34;;;;;;;2.9;1.8;;;;;;;;;;;;;
2020/02/05 16:08:59;;;;;;;5.4;3;;;;;;;;;;;;;
2020/02/05 16:11:24;;;;;;;4.6;2.4;;;;;;;;;;;;;
2020/02/05 16:13:49;;;;;;;3.7;1.9;;;;;;;;;;;;;
2020/02/05 16:16:14;;;;;;;3.7;1.8;;;;;;;;;;;;;
2020/02/05 16:18:39;;;;;;;6.5;2.2;;;;;;;;;;;;;
2020/02/05 16:21:05;;;;;;;3.1;1.7;;;;;;;;;;;;;
2020/02/05 16:23:30;;;;;;;4;2.2;;;;;;;;;;;;;
2020/02/05 16:25:55;;;;;;;3.9;1.9;;;;;;;;;;;;;
2020/02/05 16:28:20;;;;;;;5.1;1.9;;;;;;;;;;;;;
2020/02/05 16:30:45;;;;;;;2.9;1.7;;;;;;;;;;;;;
2020/02/05 16:33:10;;;;;;;3.3;1.6;;;;;;;;;;;;;
2020/02/05 16:35:35;;;;;;;3.5;1.8;;;;;;;;;;;;;
2020/02/05 16:38:00;;;;;;;4.7;1.6;;;;;;;;;;;;;
2020/02/05 16:40:25;;;;;;;3.4;1.6;;;;;;;;;;;;;
2020/02/05 16:42:50;;;;;;;2.8;1.4;;;;;;;;;;;;;
2020/02/05 16:45:15;;;;;;;3.7;1.7;;;;;;;;;;;;;
2020/02/05 16:47:40;;;;;;;4;2;;;;;;;;;;;;;
2020/02/05 16:50:06;;;;;;;3.5;1.8;;;;;;;;;;;;;
2020/02/05 16:52:31;;;;;;;5.2;2;;;;;;;;;;;;;
2020/02/05 16:54:56;;;;;;;4.5;2.6;;;;;;;;;;;;;
2020/02/05 16:57:21;;;;;;;5.9;3.1;;;;;;;;;;;;;
2020/02/05 16:59:46;;;;;;;7;4.1;;;;;;;;;;;;;
2020/02/05 17:02:11;;;;;;;8.7;4.1;;;;;;;;;;;;;
2020/02/05 17:04:36;;;;;;;6.5;3.6;;;;;;;;;;;;;
2020/02/05 17:14:55;;;;;;;6.3;2.9;;;;;;;;;;;;;
2020/02/05 17:16:54;;;;;;;6.1;3.2;;;;;;;;;;;;;
2020/02/05 17:20:06;;;;;;;4.2;2.5;;;;;;;;;;;;;
2020/02/05 17:22:01;;;;;;;5.9;2.5;;;;;;;;;;;;;
2020/02/05 17:24:13;;;;;;;5.5;3.6;;;;;;;;;;;;;
2020/02/05 17:27:01;;;;;;;5;3.5;;;;;;;;;;;;;
2020/02/05 17:29:26;;;;;;;6.8;3;;;;;;;;;;;;;
2020/02/05 17:31:37;;;;;;;7.1;3.3;;;;;;;;;;;;;
2020/02/05 17:33:53;;;;;;;6;2.6;;;;;;;;;;;;;
2020/02/05 17:36:13;;;;;;;7.5;3.2;;;;;;;;;;;;;
2020/02/05 17:38:48;;;;;;;6.9;4;;;;;;;;;;;;;
2020/02/05 17:41:06;;;;;;;11;6.2;;;;;;;;;;;;;
2020/02/05 17:45:09;;;;;;;10.7;5.9;;;;;;;;;;;;;
2020/02/05 17:45:43;;;;;;;7.5;4.4;;;;;;;;;;;;;
2020/02/05 17:48:08;;;;;;;14.5;7.8;;;;;;;;;;;;;
2020/02/05 17:50:33;;;;;;;14.4;8.4;;;;;;;;;;;;;
2020/02/05 17:52:58;;;;;;;13.4;6.8;;;;;;;;;;;;;
2020/02/05 17:55:24;;;;;;;10.3;4.9;;;;;;;;;;;;;
2020/02/05 17:57:48;;;;;;;6;3.4;;;;;;;;;;;;;
2020/02/05 18:00:13;;;;;;;8.2;3.7;;;;;;;;;;;;;
2020/02/05 18:02:39;;;;;;;8.4;4.4;;;;;;;;;;;;;
2020/02/05 18:05:04;;;;;;;9.1;4.2;;;;;;;;;;;;;
2020/02/05 18:07:29;;;;;;;6.6;4.1;;;;;;;;;;;;;
2020/02/05 18:09:54;;;;;;;8.3;4.7;;;;;;;;;;;;;
2020/02/05 18:12:19;;;;;;;12.7;5.3;;;;;;;;;;;;;
2020/02/05 18:14:44;;;;;;;9.8;5.2;;;;;;;;;;;;;
2020/02/05 18:17:09;;;;;;;10.1;5.2;;;;;;;;;;;;;
2020/02/05 18:19:34;;;;;;;8.2;5;;;;;;;;;;;;;
2020/02/05 18:21:59;;;;;;;9.1;5.1;;;;;;;;;;;;;
2020/02/05 18:24:24;;;;;;;11.2;5.2;;;;;;;;;;;;;
2020/02/05 18:26:50;;;;;;;9.9;5.5;;;;;;;;;;;;;
2020/02/05 18:29:15;;;;;;;8.5;4.9;;;;;;;;;;;;;
2020/02/05 18:31:40;;;;;;;10.7;5.6;;;;;;;;;;;;;
2020/02/05 18:34:05;;;;;;;12.2;5.7;;;;;;;;;;;;;
2020/02/05 18:36:30;;;;;;;14.6;5.7;;;;;;;;;;;;;
2020/02/05 18:38:55;;;;;;;15.9;5.5;;;;;;;;;;;;;